Time;durP1;ratioP1;P1;durP2;ratioP2;P2;SDS_P1;SDS_P2;PMS_P1;PMS_P2;Temp;Humidity;BMP_temperature;BMP_pressure;BME280_temperature;BME280_humidity;BME280_pressure;Samples;Min_cycle;Max_cycle;Signal;HPM_P1;HPM_P2
2022/10/25 00:00:54;;;;;;;;;0.00;0.00;;;;;16.66;81.23;101172.06;5054877;28;45379;-67
2022/10/25 00:03:19;;;;;;;;;0.00;0.00;;;;;16.56;81.27;101163.88;5055244;28;45790;-67
2022/10/25 00:05:44;;;;;;;;;0.00;0.00;;;;;16.67;81.46;101178.31;5055518;28;45533;-67
2022/10/25 00:08:10;;;;;;;;;2.75;1.00;;;;;16.60;81.41;101165.34;5055517;28;45459;-67
2022/10/25 00:10:36;;;;;;;;;0.00;0.00;;;;;16.45;81.80;101148.53;5053781;28;45498;-67
2022/10/25 00:13:02;;;;;;;;;1.00;0.25;;;;;16.43;82.36;101161.25;5054775;28;45414;-67
2022/10/25 00:15:27;;;;;;;;;0.75;0.75;;;;;16.61;81.63;101180.53;5053813;28;45495;-67
2022/10/25 00:17:53;;;;;;;;;1.00;1.00;;;;;16.47;81.15;101151.97;5055194;28;45871;-68
2022/10/25 00:20:19;;;;;;;;;2.50;1.25;;;;;16.68;81.21;101185.41;5054143;28;45366;-67
2022/10/25 00:22:44;;;;;;;;;0.00;0.00;;;;;16.57;81.25;101189.78;5054932;28;45369;-67
2022/10/25 00:25:10;;;;;;;;;1.75;1.00;;;;;16.58;81.34;101190.66;5052942;28;45564;-66
2022/10/25 00:27:36;;;;;;;;;0.75;0.75;;;;;16.69;81.06;101204.16;5054585;28;45392;-67
2022/10/25 00:30:04;;;;;;;;;2.00;0.00;;;;;16.71;80.64;101193.25;5055318;28;45522;-67
2022/10/25 00:32:29;;;;;;;;;0.75;0.75;;;;;16.61;81.05;101190.41;5055356;28;45447;-67
2022/10/25 00:34:54;;;;;;;;;1.50;0.25;;;;;16.52;81.33;101174.97;5050305;28;45596;-67
2022/10/25 00:37:20;;;;;;;;;0.75;0.75;;;;;16.58;81.08;101191.50;5053337;28;46928;-67
2022/10/25 00:39:45;;;;;;;;;2.50;1.00;;;;;16.48;80.79;101159.06;5054437;28;45388;-67
2022/10/25 00:42:20;;;;;;;;;0.00;0.00;;;;;16.66;81.12;101201.69;5055084;28;45368;-67
2022/10/25 00:44:50;;;;;;;;;2.25;0.00;;;;;16.68;81.08;101202.44;5055310;28;45408;-67
2022/10/25 00:47:27;;;;;;;;;0.00;0.00;;;;;15.81;81.10;101063.72;5054567;28;46424;-67
2022/10/25 00:50:21;;;;;;;;;0.00;0.00;;;;;16.58;87.65;101204.13;5054995;28;45403;-67
2022/10/25 00:52:50;;;;;;;;;0.00;0.00;;;;;16.26;82.73;101150.94;5055163;28;45424;-68
2022/10/25 00:55:18;;;;;;;;;3.00;0.00;;;;;16.56;82.47;101206.94;5055030;28;45384;-64
2022/10/25 00:57:57;;;;;;;;;1.00;1.00;;;;;16.48;82.75;101210.22;5054517;28;45353;-64
2022/10/25 01:00:22;;;;;;;;;2.00;1.00;;;;;16.24;82.36;101159.13;5054686;28;45475;-64
2022/10/25 01:02:48;;;;;;;;;0.00;0.00;;;;;16.51;82.08;101200.22;5054765;28;45926;-64
2022/10/25 01:05:15;;;;;;;;;0.00;0.00;;;;;16.54;82.17;101205.34;5054824;28;45440;-65
2022/10/25 01:07:41;;;;;;;;;1.25;1.00;;;;;16.47;82.48;101196.88;5054674;28;46533;-65
2022/10/25 01:10:06;;;;;;;;;1.00;1.00;;;;;16.47;81.99;101203.13;5054552;28;45338;-65
2022/10/25 01:12:33;;;;;;;;;1.00;0.00;;;;;16.50;81.82;101191.25;5054746;28;45381;-64
2022/10/25 01:14:59;;;;;;;;;0.75;0.25;;;;;16.62;82.02;101209.16;5054605;28;45405;-64
2022/10/25 01:17:50;;;;;;;;;1.00;1.00;;;;;16.46;82.51;101193.31;5054435;28;47137;-64
2022/10/25 01:20:15;;;;;;;;;1.75;0.75;;;;;16.51;82.80;101202.91;5054165;28;45395;-65
2022/10/25 01:23:07;;;;;;;;;0.00;0.00;;;;;16.45;82.42;101191.63;5054715;28;45456;-65
2022/10/25 01:26:26;;;;;;;;;1.00;1.00;;;;;16.59;82.39;101208.56;5053268;28;45367;-65
2022/10/25 01:29:10;;;;;;;;;1.25;0.25;;;;;16.59;82.56;101213.94;5052949;28;47081;-65
2022/10/25 01:31:42;;;;;;;;;1.00;0.00;;;;;16.62;81.84;101216.38;5054363;28;45483;-66
2022/10/25 01:34:12;;;;;;;;;2.00;0.75;;;;;16.46;81.75;101182.53;5054502;28;45473;-65
2022/10/25 01:37:00;;;;;;;;;1.50;0.50;;;;;16.63;81.64;101205.50;5057856;28;45288;-65
2022/10/25 01:39:31;;;;;;;;;0.25;0.25;;;;;16.59;81.96;101209.41;5057311;28;45315;-65
2022/10/25 01:41:59;;;;;;;;;1.00;1.00;;;;;16.59;81.96;101201.31;5057304;28;45408;-65
2022/10/25 01:44:39;;;;;;;;;2.00;1.00;;;;;16.63;81.41;101201.94;5057823;28;45469;-65
2022/10/25 01:47:15;;;;;;;;;0.00;0.00;;;;;16.52;81.09;101185.75;5057598;28;45436;-65
2022/10/25 01:49:45;;;;;;;;;1.75;0.75;;;;;16.61;81.23;101201.19;5057493;28;45424;-65
2022/10/25 01:52:12;;;;;;;;;2.75;0.00;;;;;16.41;81.25;101184.75;5057445;28;45314;-65
2022/10/25 01:54:37;;;;;;;;;1.00;1.00;;;;;16.27;80.99;101152.66;5056350;28;45414;-65
2022/10/25 01:57:12;;;;;;;;;1.75;1.00;;;;;16.56;81.03;101204.25;5057598;28;45397;-65
2022/10/25 02:00:09;;;;;;;;;4.50;1.00;;;;;16.57;80.35;101205.09;5057240;28;45663;-64
2022/10/25 02:02:35;;;;;;;;;0.00;0.00;;;;;16.55;80.45;101213.31;5057343;28;45460;-64
2022/10/25 02:05:09;;;;;;;;;0.75;0.75;;;;;16.55;80.38;101205.22;5057351;28;45345;-65
2022/10/25 02:07:41;;;;;;;;;1.00;0.00;;;;;16.58;80.14;101204.13;5057487;28;45578;-65
2022/10/25 02:10:13;;;;;;;;;0.00;0.00;;;;;16.57;79.58;101205.94;5056965;28;46131;-65
2022/10/25 02:12:46;;;;;;;;;0.00;0.00;;;;;16.51;79.57;101208.28;5057051;28;45635;-65
2022/10/25 02:15:22;;;;;;;;;4.00;0.00;;;;;16.40;79.83;101196.50;5057444;28;45290;-64
2022/10/25 02:17:54;;;;;;;;;0.50;0.50;;;;;16.53;79.49;101215.25;5057358;28;45413;-64
2022/10/25 02:20:24;;;;;;;;;0.75;0.75;;;;;16.29;79.16;101172.22;5056875;28;46500;-65
2022/10/25 02:22:51;;;;;;;;;1.25;0.50;;;;;16.52;79.35;101216.25;5057235;28;45251;-65
2022/10/25 02:25:17;;;;;;;;;3.00;0.00;;;;;16.50;79.23;101220.03;5055737;28;45587;-64
2022/10/25 02:27:44;;;;;;;;;0.25;0.25;;;;;16.47;79.24;101221.97;5057148;28;45617;-64
2022/10/25 02:30:10;;;;;;;;;1.00;1.00;;;;;16.20;79.55;101175.66;5056882;28;45528;-64
2022/10/25 02:32:36;;;;;;;;;1.00;0.00;;;;;16.43;79.36;101219.63;5056907;28;45418;-64
2022/10/25 02:35:02;;;;;;;;;0.50;0.50;;;;;16.48;79.24;101218.31;5056908;28;45439;-64
2022/10/25 02:37:27;;;;;;;;;0.50;0.00;;;;;16.43;79.42;101209.72;5056866;28;45405;-64
2022/10/25 02:39:53;;;;;;;;;1.50;1.00;;;;;16.53;79.42;101226.00;5056170;28;45391;-65
2022/10/25 02:42:19;;;;;;;;;0.00;0.00;;;;;16.51;79.38;101222.59;5056860;28;45426;-65
2022/10/25 02:44:44;;;;;;;;;2.00;0.00;;;;;16.47;79.77;101223.81;5056843;28;45243;-65
2022/10/25 02:47:09;;;;;;;;;3.25;1.00;;;;;16.48;79.85;101222.84;5056132;28;45302;-65
2022/10/25 02:49:35;;;;;;;;;0.50;0.00;;;;;16.52;80.15;101220.75;5056675;28;45445;-65
2022/10/25 02:52:00;;;;;;;;;0.00;0.00;;;;;16.52;79.67;101204.59;5056649;28;45314;-64
2022/10/25 02:54:25;;;;;;;;;0.00;0.00;;;;;16.52;79.76;101204.59;5056479;28;45456;-64
2022/10/25 02:56:51;;;;;;;;;0.00;0.00;;;;;16.64;80.01;101215.28;5055711;28;45300;-64
2022/10/25 02:59:18;;;;;;;;;2.00;0.75;;;;;16.61;79.60;101207.47;5056543;28;47167;-65
2022/10/25 03:01:43;;;;;;;;;0.00;0.00;;;;;16.39;79.68;101173.25;5056429;28;45408;-64
2022/10/25 03:04:09;;;;;;;;;0.00;0.00;;;;;16.61;79.21;101201.19;5056162;28;45352;-64
2022/10/25 03:06:34;;;;;;;;;0.00;0.00;;;;;16.73;79.06;101211.00;5056569;28;45587;-65
2022/10/25 03:08:59;;;;;;;;;0.00;0.00;;;;;16.56;79.00;101193.50;5055828;28;45569;-65
2022/10/25 03:11:25;;;;;;;;;1.50;0.00;;;;;16.75;78.50;101218.97;5056440;28;45365;-65
2022/10/25 03:13:50;;;;;;;;;0.00;0.00;;;;;16.48;78.59;101175.22;5056530;28;45488;-65
2022/10/25 03:16:16;;;;;;;;;0.00;0.00;;;;;16.75;78.41;101224.34;5056220;28;45436;-64
2022/10/25 03:18:41;;;;;;;;;0.00;0.00;;;;;16.50;78.34;101182.34;5056323;28;46504;-64
2022/10/25 03:21:06;;;;;;;;;1.25;0.50;;;;;16.63;78.65;101202.78;5056252;28;45273;-65
2022/10/25 03:23:33;;;;;;;;;1.00;1.00;;;;;16.82;78.25;101223.75;5055732;28;45382;-65
2022/10/25 03:25:59;;;;;;;;;0.00;0.00;;;;;16.56;77.66;101184.53;5056402;28;45442;-65
2022/10/25 03:28:26;;;;;;;;;2.00;0.00;;;;;16.79;78.05;101226.72;5054585;28;46581;-65
2022/10/25 03:30:52;;;;;;;;;2.00;0.00;;;;;16.77;77.80;101223.25;5056093;28;45470;-65
2022/10/25 03:33:18;;;;;;;;;0.25;0.00;;;;;16.64;77.73;101200.94;5056208;28;45477;-65
2022/10/25 03:35:44;;;;;;;;;0.00;0.00;;;;;16.85;78.17;101224.50;5055877;28;45479;-65
2022/10/25 03:38:09;;;;;;;;;0.75;0.00;;;;;16.76;77.85;101216.19;5054280;28;47068;-65
2022/10/25 03:40:35;;;;;;;;;1.50;0.00;;;;;16.67;77.73;101200.72;5056024;28;45475;-65
2022/10/25 03:43:00;;;;;;;;;1.75;0.75;;;;;16.87;77.81;101227.94;5071854;28;45883;-65
2022/10/25 03:45:26;;;;;;;;;0.50;0.25;;;;;16.73;78.00;101200.22;5055891;28;45604;-65
2022/10/25 03:47:51;;;;;;;;;1.00;0.00;;;;;16.90;78.10;101233.13;5055816;28;46432;-65
2022/10/25 03:50:17;;;;;;;;;3.33;0.00;;;;;16.91;78.03;101237.53;5055619;28;45457;-66
2022/10/25 03:52:42;;;;;;;;;0.00;0.00;;;;;16.89;77.74;101240.34;5055979;28;45412;-65
2022/10/25 03:55:09;;;;;;;;;1.33;1.00;;;;;17.01;77.71;101261.94;5055807;28;45452;-65
2022/10/25 03:57:34;;;;;;;;;1.50;0.50;;;;;17.00;77.67;101254.81;5055141;28;45649;-65
2022/10/25 04:00:00;;;;;;;;;0.50;0.50;;;;;16.92;77.16;101242.78;5054963;28;45350;-65
2022/10/25 04:02:26;;;;;;;;;2.00;0.00;;;;;16.64;77.76;101207.22;5055594;28;45365;-65
2022/10/25 04:04:51;;;;;;;;;0.75;0.75;;;;;16.69;77.30;101206.00;5055411;28;45420;-66
2022/10/25 04:07:18;;;;;;;;;0.00;0.00;;;;;16.91;77.50;101248.31;5053883;28;46771;-66
2022/10/25 04:09:44;;;;;;;;;1.00;1.00;;;;;16.89;77.28;101248.44;5055326;28;45443;-64
2022/10/25 04:12:09;;;;;;;;;1.00;0.00;;;;;16.72;76.84;101213.81;5055581;28;45329;-65
2022/10/25 04:14:34;;;;;;;;;0.50;0.00;;;;;16.95;76.81;101241.69;5054202;28;45654;-65
2022/10/25 04:17:00;;;;;;;;;1.00;0.00;;;;;16.87;76.76;101238.72;5055231;28;45466;-65
2022/10/25 04:19:25;;;;;;;;;4.50;1.00;;;;;16.81;76.85;101227.44;5054881;28;45373;-65
2022/10/25 04:21:50;;;;;;;;;1.00;1.00;;;;;16.88;76.29;101235.88;5054285;28;45377;-65
2022/10/25 04:24:16;;;;;;;;;0.00;0.00;;;;;16.93;76.50;101233.72;5055397;28;45317;-65
2022/10/25 04:26:41;;;;;;;;;0.67;0.00;;;;;16.91;76.49;101234.81;5054885;28;46986;-65
2022/10/25 04:29:07;;;;;;;;;2.25;0.00;;;;;16.93;76.22;101233.72;5055237;28;45426;-64
2022/10/25 04:31:32;;;;;;;;;1.00;1.00;;;;;17.02;76.69;101253.72;5055425;28;45757;-65
2022/10/25 04:33:58;;;;;;;;;1.00;0.00;;;;;16.95;76.24;101242.56;5055241;28;45286;-64
2022/10/25 04:36:23;;;;;;;;;1.25;1.00;;;;;17.07;76.11;101251.53;5055004;28;45459;-65
2022/10/25 04:38:50;;;;;;;;;2.75;0.50;;;;;17.05;76.49;101249.94;5054828;28;45365;-64
2022/10/25 04:41:16;;;;;;;;;0.25;0.25;;;;;17.02;76.59;101244.75;5055348;28;45300;-65
2022/10/25 04:43:41;;;;;;;;;3.00;2.00;;;;;17.08;76.60;101244.28;5054812;28;45278;-64
2022/10/25 04:46:07;;;;;;;;;3.75;1.25;;;;;17.10;76.42;101243.19;5054776;28;46052;-64
2022/10/25 04:48:36;;;;;;;;;1.67;1.67;;;;;17.04;76.28;101240.97;5055104;28;45420;-64
2022/10/25 04:51:01;;;;;;;;;2.00;1.00;;;;;16.95;76.65;101229.09;5055148;28;45382;-65
2022/10/25 04:53:27;;;;;;;;;2.00;0.67;;;;;17.02;76.44;101237.56;5054918;28;45412;-65
2022/10/25 04:56:08;;;;;;;;;1.00;1.00;;;;;16.96;76.87;101232.63;5054916;28;46412;-64
2022/10/25 04:58:34;;;;;;;;;0.00;0.00;;;;;16.63;77.44;101193.88;5053577;28;46043;-65
2022/10/25 05:01:03;;;;;;;;;0.25;0.25;;;;;16.92;77.75;101255.41;5054922;28;45579;-65
2022/10/25 05:03:29;;;;;;;;;0.50;0.50;;;;;16.90;78.10;101262.78;5054502;28;45634;-65
2022/10/25 05:06:03;;;;;;;;;1.25;1.25;;;;;16.72;78.43;101241.63;5054787;28;47877;-65
2022/10/25 05:08:29;;;;;;;;;3.75;1.00;;;;;16.84;78.58;101268.59;5054455;28;45175;-65
2022/10/25 05:10:54;;;;;;;;;0.00;0.00;;;;;16.08;78.74;101142.44;5057484;28;45223;-65
2022/10/25 05:13:20;;;;;;;;;1.00;1.00;;;;;16.75;79.30;101262.94;5058710;28;45246;-65
2022/10/25 05:15:53;;;;;;;;;5.75;1.00;;;;;16.50;80.04;101220.03;5058086;28;46467;-65
2022/10/25 05:18:19;;;;;;;;;2.00;1.00;;;;;16.73;80.08;101261.34;5058140;28;45290;-65
2022/10/25 05:20:59;;;;;;;;;2.25;1.00;;;;;16.05;80.26;101151.59;5058271;28;45250;-65
2022/10/25 05:23:26;;;;;;;;;1.00;1.00;;;;;16.68;80.56;101256.31;5058088;28;45503;-67
2022/10/25 05:26:08;;;;;;;;;1.00;1.00;;;;;16.65;80.62;101267.31;5057525;28;45364;-67
2022/10/25 05:28:35;;;;;;;;;1.50;1.50;;;;;16.49;80.69;101232.63;5058137;28;45428;-65
2022/10/25 05:31:08;;;;;;;;;3.00;3.00;;;;;16.68;80.75;101256.31;5058141;28;45408;-66
2022/10/25 05:33:34;;;;;;;;;3.25;1.75;;;;;16.49;80.34;101235.31;5046930;28;45408;-65
2022/10/25 05:36:01;;;;;;;;;2.00;2.00;;;;;16.68;80.45;101275.19;5037547;28;45399;-65
2022/10/25 05:38:27;;;;;;;;;0.50;0.50;;;;;16.34;80.50;101221.19;5037168;28;45456;-65
2022/10/25 05:40:58;;;;;;;;;0.50;0.50;;;;;16.66;80.37;101274.41;5037320;28;45318;-65
2022/10/25 05:43:23;;;;;;;;;2.75;1.75;;;;;16.59;80.44;101274.03;5037324;28;45395;-65
2022/10/25 05:45:50;;;;;;;;;1.75;1.75;;;;;16.59;81.00;101273.19;5037124;28;45441;-65
2022/10/25 05:48:16;;;;;;;;;3.00;2.00;;;;;16.34;81.44;101234.66;5037058;28;45429;-65
2022/10/25 05:50:41;;;;;;;;;2.75;2.00;;;;;16.47;81.88;101265.06;5037414;28;45413;-65
2022/10/25 05:53:06;;;;;;;;;2.00;2.00;;;;;16.50;81.43;101266.66;5041802;28;45739;-65
2022/10/25 05:55:32;;;;;;;;;3.75;2.00;;;;;16.45;81.73;101269.72;5036867;28;45995;-65
2022/10/25 05:57:59;;;;;;;;;4.00;4.00;;;;;16.47;82.11;101270.44;5036492;28;45429;-65
2022/10/25 06:00:24;;;;;;;;;4.50;2.50;;;;;16.22;82.32;101232.88;5037290;28;45391;-65
2022/10/25 06:02:50;;;;;;;;;1.25;1.25;;;;;16.38;82.84;101260.34;5064124;28;45339;-65
2022/10/25 06:05:15;;;;;;;;;6.00;3.00;;;;;16.50;82.75;101287.34;5077353;27;45333;-66
2022/10/25 06:07:40;;;;;;;;;2.00;2.00;;;;;15.71;82.88;101148.75;5076646;27;45875;-66
2022/10/25 06:10:06;;;;;;;;;3.50;3.00;;;;;16.48;82.95;101280.25;5075416;28;45724;-65
2022/10/25 06:12:31;;;;;;;;;4.00;2.50;;;;;16.51;83.01;101273.75;5076980;27;45420;-65
2022/10/25 06:14:57;;;;;;;;;2.00;2.00;;;;;16.17;82.38;101213.53;5075397;28;45324;-64
2022/10/25 06:17:22;;;;;;;;;2.00;2.00;;;;;16.61;82.73;101290.94;5076861;27;45473;-65
2022/10/25 06:19:47;;;;;;;;;2.75;2.75;;;;;16.61;82.49;101287.38;5077485;27;45462;-65
2022/10/25 06:22:13;;;;;;;;;4.00;3.75;;;;;16.57;83.01;101286.75;5076110;27;45421;-65
2022/10/25 06:24:38;;;;;;;;;4.00;2.25;;;;;16.48;82.95;101269.47;5072488;27;46400;-64
2022/10/25 06:27:03;;;;;;;;;3.50;3.00;;;;;16.43;82.75;101271.66;5036241;28;45442;-65
2022/10/25 06:29:29;;;;;;;;;2.75;1.50;;;;;16.67;82.75;101294.13;5036371;28;45309;-65
2022/10/25 06:31:54;;;;;;;;;2.00;2.00;;;;;16.67;82.81;101296.81;5036521;28;45559;-65
2022/10/25 06:34:19;;;;;;;;;1.25;0.75;;;;;16.62;82.42;101291.78;5036590;28;46490;-65
2022/10/25 06:36:45;;;;;;;;;2.00;2.00;;;;;16.50;82.68;101268.50;5036343;28;45400;-65
2022/10/25 06:39:10;;;;;;;;;1.75;0.75;;;;;16.62;82.45;101295.34;5036638;28;45311;-65
2022/10/25 06:41:35;;;;;;;;;1.00;1.00;;;;;16.53;82.19;101287.94;5035332;28;45342;-65
2022/10/25 06:44:01;;;;;;;;;3.25;1.00;;;;;16.50;82.07;101274.72;5036426;28;46136;-66
2022/10/25 06:46:29;;;;;;;;;2.75;1.50;;;;;16.57;81.07;101280.50;5036197;28;45353;-65
2022/10/25 06:48:56;;;;;;;;;3.00;2.00;;;;;16.75;79.96;101315.94;5036406;28;45282;-65
2022/10/25 06:51:22;;;;;;;;;1.25;1.00;;;;;16.72;79.75;101295.50;5035339;28;45546;-66
2022/10/25 06:53:58;;;;;;;;;4.00;2.75;;;;;16.76;79.87;101305.06;5036119;28;46687;-65
2022/10/25 06:56:25;;;;;;;;;3.00;2.00;;;;;16.79;80.37;101307.53;5036149;28;45353;-66
2022/10/25 06:58:51;;;;;;;;;4.00;1.00;;;;;16.75;80.76;101311.44;5035985;28;45386;-65
2022/10/25 07:01:18;;;;;;;;;5.50;2.25;;;;;16.79;81.12;101307.53;5037673;28;45359;-66
2022/10/25 07:03:45;;;;;;;;;1.75;1.75;;;;;16.74;81.21;101309.72;5054794;28;46437;-66
2022/10/25 07:06:20;;;;;;;;;2.00;2.00;;;;;16.11;81.20;101215.75;5055965;28;45275;-65
2022/10/25 07:08:46;;;;;;;;;2.00;2.00;;;;;16.79;81.66;101318.31;5056567;28;45299;-65
2022/10/25 07:11:14;;;;;;;;;4.50;2.00;;;;;16.75;81.22;101295.28;5049134;28;45583;-66
2022/10/25 07:13:40;;;;;;;;;1.75;1.00;;;;;16.58;81.25;101266.06;5045485;28;48271;-65
2022/10/25 07:16:09;;;;;;;;;1.00;1.00;;;;;16.85;80.68;101319.66;5035381;28;45292;-66
2022/10/25 07:18:35;;;;;;;;;2.00;1.50;;;;;16.80;80.59;101303.00;5032663;28;46072;-66
2022/10/25 07:21:01;;;;;;;;;0.25;0.25;;;;;16.91;80.86;101312.97;5033049;28;46714;-66
2022/10/25 07:23:28;;;;;;;;;2.50;1.50;;;;;16.96;80.51;101325.13;5035498;28;45392;-65
2022/10/25 07:25:53;;;;;;;;;2.00;2.00;;;;;16.97;80.71;101310.66;5033768;28;45528;-65
2022/10/25 07:28:18;;;;;;;;;2.00;2.00;;;;;17.02;80.09;101321.09;5033750;28;46026;-65
2022/10/25 07:30:45;;;;;;;;;2.50;2.00;;;;;17.06;80.14;101330.66;5035871;28;45510;-65
2022/10/25 07:33:12;;;;;;;;;4.50;2.00;;;;;17.08;79.96;101328.69;5035303;28;46059;-65
2022/10/25 07:35:38;;;;;;;;;1.00;0.25;;;;;17.00;79.97;101319.50;5035423;28;45391;-65
2022/10/25 07:38:03;;;;;;;;;2.00;2.00;;;;;17.05;79.92;101334.31;5035435;28;45332;-64
2022/10/25 07:40:28;;;;;;;;;2.00;2.00;;;;;16.82;79.69;101277.66;5034247;28;45404;-66
2022/10/25 07:42:54;;;;;;;;;0.50;0.50;;;;;16.81;79.73;101267.84;5035064;28;45376;-65
2022/10/25 07:45:19;;;;;;;;;2.75;1.75;;;;;17.12;79.38;101307.75;5035663;28;45408;-65
2022/10/25 07:47:44;;;;;;;;;2.50;2.50;;;;;16.70;79.39;101234.66;5035604;28;45384;-65
2022/10/25 07:50:10;;;;;;;;;2.25;1.25;;;;;17.36;79.02;101345.41;5035746;28;45365;-65
2022/10/25 07:52:35;;;;;;;;;1.50;1.00;;;;;17.11;78.95;101309.59;5035674;28;45695;-65
2022/10/25 07:55:00;;;;;;;;;2.50;1.50;;;;;16.96;78.70;101279.31;5034124;28;45400;-65
2022/10/25 07:57:26;;;;;;;;;1.25;1.00;;;;;17.10;78.62;101297.09;5034210;28;45339;-65
2022/10/25 07:59:51;;;;;;;;;4.50;3.00;;;;;17.55;77.97;101352.91;5034024;28;45425;-66
2022/10/25 08:02:16;;;;;;;;;3.50;2.00;;;;;17.23;78.13;101288.03;5045350;28;45603;-66
2022/10/25 08:04:42;;;;;;;;;1.50;1.50;;;;;17.52;77.50;101336.09;5055396;28;45366;-66
2022/10/25 08:07:07;;;;;;;;;2.00;1.25;;;;;17.61;77.69;101336.25;5055651;28;45295;-66
2022/10/25 08:09:32;;;;;;;;;4.00;3.50;;;;;17.57;76.97;101326.69;5055491;28;45323;-66
2022/10/25 08:11:58;;;;;;;;;5.00;4.50;;;;;17.83;76.78;101343.47;5055038;28;45790;-66
2022/10/25 08:14:23;;;;;;;;;5.00;3.00;;;;;17.83;77.09;101348.84;5055340;28;45517;-66
2022/10/25 08:16:48;;;;;;;;;1.75;1.75;;;;;17.87;76.81;101340.50;5055438;28;45239;-66
2022/10/25 08:19:14;;;;;;;;;2.50;2.50;;;;;17.68;76.19;101300.66;5055532;28;45369;-66
2022/10/25 08:21:39;;;;;;;;;8.25;7.00;;;;;17.83;75.27;101319.19;5054919;28;45732;-66
2022/10/25 08:24:05;;;;;;;;;3.00;3.00;;;;;17.83;75.08;101335.38;5055047;28;45316;-66
2022/10/25 08:26:30;;;;;;;;;1.00;1.00;;;;;17.75;75.22;101308.16;5055314;28;45385;-66
2022/10/25 08:28:55;;;;;;;;;3.00;1.00;;;;;17.93;74.63;101329.25;5055054;28;45361;-65
2022/10/25 08:31:21;;;;;;;;;3.25;2.75;;;;;17.99;74.90;101331.44;5053978;28;45849;-66
2022/10/25 08:33:46;;;;;;;;;3.00;3.00;;;;;17.79;74.61;101285.34;5053666;28;45473;-65
2022/10/25 08:36:12;;;;;;;;;1.00;1.00;;;;;18.28;73.54;101333.59;5054909;28;45357;-65
2022/10/25 08:38:37;;;;;;;;;4.75;2.25;;;;;18.56;72.90;101334.00;5055133;28;45418;-66
2022/10/25 08:41:18;;;;;;;;;1.00;1.00;;;;;18.88;70.81;101331.31;5053168;28;48332;-66
2022/10/25 08:43:57;;;;;;;;;3.00;2.00;;;;;20.65;65.27;101324.72;5054724;28;45365;-65
2022/10/25 08:46:30;;;;;;;;;3.75;2.00;;;;;20.94;64.02;101316.56;5058406;28;45381;-66
2022/10/25 08:49:22;;;;;;;;;1.33;1.33;;;;;21.04;61.45;101316.59;5058424;28;45360;-66
2022/10/25 08:51:49;;;;;;;;;1.33;1.33;;;;;21.76;60.26;101319.63;5057965;28;45479;-66
2022/10/25 08:54:23;;;;;;;;;2.00;1.00;;;;;20.95;59.88;101322.88;5074075;28;45521;-66
2022/10/25 08:56:53;;;;;;;;;0.67;0.67;;;;;20.64;61.78;101323.84;5058259;28;45315;-66
2022/10/25 08:59:26;;;;;;;;;0.00;0.00;;;;;22.01;59.07;101300.91;5058849;28;45253;-67
2022/10/25 09:01:56;;;;;;;;;2.00;1.00;;;;;22.02;58.57;101322.47;5063222;28;47335;-66
2022/10/25 09:04:22;;;;;;;;;1.00;1.00;;;;;21.52;58.83;101301.97;5078311;27;45297;-65
2022/10/25 09:07:03;;;;;;;;;1.00;0.67;;;;;21.61;57.51;101318.44;5078502;28;45319;-65
2022/10/25 09:10:07;;;;;;;;;0.00;0.00;;;;;21.87;57.16;101312.31;5078486;27;45387;-66
2022/10/25 09:12:43;;;;;;;;;2.33;1.00;;;;;21.72;58.65;101326.38;5035827;28;45441;-65
2022/10/25 09:16:02;;;;;;;;;1.00;0.67;;;;;21.65;58.57;101330.69;5035729;28;45339;-66
2022/10/25 09:18:56;;;;;;;;;2.25;2.00;;;;;22.17;57.46;101325.56;4997094;28;45384;-65
2022/10/25 09:21:36;;;;;;;;;0.00;0.00;;;;;21.75;57.23;101323.34;4996034;28;45549;-65
2022/10/25 09:24:17;;;;;;;;;1.00;0.33;;;;;21.27;57.93;101329.78;4995527;28;46387;-65
2022/10/25 09:26:56;;;;;;;;;0.00;0.00;;;;;20.99;58.82;101321.56;4995836;28;45301;-66
2022/10/25 09:29:30;;;;;;;;;0.00;0.00;;;;;21.08;57.26;101322.53;4995984;28;45579;-66
2022/10/25 09:31:59;;;;;;;;;0.00;0.00;;;;;21.38;56.58;101316.06;4995772;28;45495;-65
2022/10/25 09:34:31;;;;;;;;;0.00;0.00;;;;;21.49;56.20;101302.28;4995721;28;46496;-65
2022/10/25 09:37:05;;;;;;;;;0.33;0.33;;;;;23.01;53.33;101322.59;4979145;28;45644;-65
2022/10/25 09:39:52;;;;;;;;;0.00;0.00;;;;;25.27;49.02;101288.31;4995385;28;45477;-65
2022/10/25 09:42:25;;;;;;;;;0.00;0.00;;;;;26.46;44.69;101293.72;4995601;28;45550;-66
2022/10/25 09:44:54;;;;;;;;;0.00;0.00;;;;;26.91;43.61;101274.72;4995341;28;46710;-65
2022/10/25 09:47:29;;;;;;;;;0.00;0.00;;;;;27.05;43.22;101270.31;5007173;28;45507;-65
2022/10/25 09:50:00;;;;;;;;;0.00;0.00;;;;;26.93;44.37;101308.25;5055357;28;45471;-66
2022/10/25 09:52:56;;;;;;;;;1.00;0.00;;;;;26.57;43.47;101306.13;5066182;28;45494;-65
2022/10/25 09:55:34;;;;;;;;;0.00;0.00;;;;;25.55;44.99;101300.69;5077520;27;46404;-65
2022/10/25 09:58:00;;;;;;;;;0.00;0.00;;;;;24.61;47.73;101269.25;5077766;27;45301;-65
2022/10/25 10:00:26;;;;;;;;;1.00;1.00;;;;;24.25;49.52;101299.56;5077532;27;45389;-65
2022/10/25 10:02:52;;;;;;;;;0.00;0.00;;;;;23.94;50.11;101264.78;5077774;27;45269;-65
2022/10/25 10:05:20;;;;;;;;;0.00;0.00;;;;;24.18;49.51;101293.09;5077481;27;46299;-65
2022/10/25 10:07:47;;;;;;;;;0.00;0.00;;;;;24.22;50.55;101309.97;5077256;27;45394;-65
2022/10/25 10:10:18;;;;;;;;;0.00;0.00;;;;;24.24;49.70;101297.88;5077277;28;45286;-67
2022/10/25 10:12:58;;;;;;;;;0.00;0.00;;;;;24.16;48.75;101295.97;5077492;27;45407;-66
2022/10/25 10:15:30;;;;;;;;;0.00;0.00;;;;;24.02;49.96;101292.03;5077243;27;45647;-66
2022/10/25 10:18:21;;;;;;;;;0.00;0.00;;;;;23.87;48.52;101290.09;5077259;27;45365;-66
2022/10/25 10:21:04;;;;;;;;;0.00;0.00;;;;;23.42;49.29;101287.50;5071213;27;45494;-65
2022/10/25 10:23:53;;;;;;;;;0.00;0.00;;;;;23.19;51.94;101289.94;5077109;27;45428;-66
2022/10/25 10:26:19;;;;;;;;;1.00;0.00;;;;;23.38;52.88;101280.69;5071611;28;46236;-67
2022/10/25 10:28:50;;;;;;;;;0.00;0.00;;;;;22.96;51.76;101210.72;5075784;28;45333;-65
2022/10/25 10:31:17;;;;;;;;;1.33;0.00;;;;;23.14;51.10;101289.56;5077267;27;45404;-65
2022/10/25 10:33:50;;;;;;;;;0.00;0.00;;;;;22.81;51.92;101275.72;5076885;27;45507;-66
2022/10/25 10:36:24;;;;;;;;;0.67;0.67;;;;;22.88;52.84;101275.91;5076687;27;46595;-67
2022/10/25 10:38:50;;;;;;;;;1.00;0.00;;;;;22.20;51.62;101193.13;5076672;28;45302;-66
2022/10/25 10:41:27;;;;;;;;;0.00;0.00;;;;;22.67;53.24;101271.69;5076956;27;45333;-65
2022/10/25 10:44:08;;;;;;;;;0.67;0.00;;;;;22.75;52.81;101284.50;5061387;28;45317;-67
2022/10/25 10:46:33;;;;;;;;;3.00;0.67;;;;;22.67;54.17;101263.53;5050439;28;47515;-67
2022/10/25 10:49:01;;;;;;;;;0.00;0.00;;;;;22.44;53.07;101220.53;5037482;28;45502;-67
2022/10/25 10:51:39;;;;;;;;;0.00;0.00;;;;;22.83;53.14;101270.97;5036325;28;45362;-67
2022/10/25 10:54:24;;;;;;;;;0.00;0.00;;;;;22.87;52.98;101266.91;5036064;28;45454;-67
2022/10/25 10:56:57;;;;;;;;;1.00;1.00;;;;;22.77;52.92;101260.69;5035195;28;45424;-66
2022/10/25 10:59:50;;;;;;;;;1.00;0.00;;;;;22.87;53.38;101255.19;5035867;28;45255;-66
2022/10/25 11:02:23;;;;;;;;;0.00;0.00;;;;;22.84;52.95;101259.91;5045550;28;45319;-67
2022/10/25 11:04:54;;;;;;;;;2.00;1.00;;;;;22.24;52.78;101140.16;5056349;28;45387;-65
2022/10/25 11:07:28;;;;;;;;;0.67;0.67;;;;;23.08;52.87;101261.09;5055282;28;45487;-65
2022/10/25 11:10:13;;;;;;;;;3.33;0.00;;;;;23.14;53.23;101246.88;5056061;28;45480;-66
2022/10/25 11:12:38;;;;;;;;;0.00;0.00;;;;;23.24;52.29;101249.50;5056097;28;45400;-67
2022/10/25 11:15:10;;;;;;;;;1.00;0.00;;;;;22.98;51.68;101204.06;5054797;28;45433;-66
2022/10/25 11:17:42;;;;;;;;;2.00;0.00;;;;;23.29;52.31;101238.09;5055794;28;46370;-66
2022/10/25 11:20:23;;;;;;;;;0.00;0.00;;;;;23.42;53.33;101233.06;5055378;28;45362;-66
2022/10/25 11:23:01;;;;;;;;;0.33;0.33;;;;;23.63;52.60;101229.06;5056118;28;45351;-64
2022/10/25 11:25:56;;;;;;;;;0.00;0.00;;;;;23.79;51.29;101229.09;5055895;28;45332;-66
2022/10/25 11:28:24;;;;;;;;;0.67;0.67;;;;;23.84;51.79;101224.00;5055811;28;45322;-66
2022/10/25 11:31:41;;;;;;;;;3.00;0.67;;;;;23.82;50.84;101226.06;5055600;28;45309;-67
2022/10/25 11:34:15;;;;;;;;;1.00;1.00;;;;;23.88;50.81;101215.53;4974098;28;45410;-67
2022/10/25 11:36:55;;;;;;;;;1.00;0.00;;;;;24.02;52.09;101215.75;4974276;28;45534;-65